Time;durP1;ratioP1;P1;durP2;ratioP2;P2;SDS_P1;SDS_P2;PMS_P1;PMS_P2;Temp;Humidity;BMP_temperature;BMP_pressure;BME280_temperature;BME280_humidity;BME280_pressure;Samples;Min_cycle;Max_cycle;Signal;HPM_P1;HPM_P2
2022/05/17 00:02:02;;;;;;;;;;;;;;;16.64;59.20;101887.19;5093762;28;19912;-68
2022/05/17 00:04:28;;;;;;;;;;;;;;;16.60;60.13;101883.03;5101299;28;19964;-68
2022/05/17 00:06:54;;;;;;;;;;;;;;;16.52;59.07;101880.88;5093925;28;20002;-68
2022/05/17 00:09:20;;;;;;;;;;;;;;;16.47;59.58;101885.75;5091833;28;19919;-68
2022/05/17 00:11:46;;;;;;;;;;;;;;;16.41;60.52;101885.28;5096211;28;19965;-68
2022/05/17 00:14:12;;;;;;;;;;;;;;;16.31;60.24;101888.63;5093685;28;20286;-68
2022/05/17 00:16:40;;;;;;;;;;;;;;;16.27;60.17;101884.47;5092965;28;19918;-68
2022/05/17 00:19:06;;;;;;;;;;;;;;;16.27;60.32;101880.94;5092241;28;19920;-69
2022/05/17 00:21:31;;;;;;;;;;;;;;;16.26;60.62;101874.66;5092294;28;19923;-68
2022/05/17 00:23:57;;;;;;;;;;;;;;;16.25;59.72;101881.03;5095790;28;19918;-69
2022/05/17 00:26:23;;;;;;;;;;;;;;;16.25;60.05;101875.66;5093944;28;19915;-68
2022/05/17 00:28:48;;;;;;;;;;;;;;;16.24;59.93;101873.09;5107977;28;19916;-68
2022/05/17 00:31:13;;;;;;;;;;;;;;;16.26;60.01;101868.44;5092401;28;19969;-68
2022/05/17 00:33:39;;;;;;;;;;;;;;;16.27;60.08;101862.13;5091763;28;20260;-68
2022/05/17 00:36:04;;;;;;;;;;;;;;;16.26;61.53;101868.44;5096343;28;20438;-68
2022/05/17 00:38:30;;;;;;;;;;;;;;;16.25;59.51;101862.22;5101390;28;19920;-69
2022/05/17 00:40:55;;;;;;;;;;;;;;;16.26;60.90;101866.63;5093217;28;19962;-68
2022/05/17 00:44:42;;;;;;;;;;;;;;;16.25;60.73;101864.91;5092495;28;21424;-68
2022/05/17 00:46:18;;;;;;;;;;;;;;;16.28;62.85;101861.16;5092323;28;19918;-68
2022/05/17 00:48:44;;;;;;;;;;;;;;;16.27;62.31;101856.75;5095034;28;20361;-68
2022/05/17 00:51:11;;;;;;;;;;;;;;;16.26;62.05;101855.88;5090903;28;19948;-69
2022/05/17 00:53:37;;;;;;;;;;;;;;;16.27;62.85;101851.41;5092018;28;20367;-69
2022/05/17 00:56:14;;;;;;;;;;;;;;;16.27;62.05;101854.09;5095463;28;19912;-68
2022/05/17 00:58:44;;;;;;;;;;;;;;;16.22;62.51;101851.72;5094104;28;19915;-68
2022/05/17 01:01:12;;;;;;;;;;;;;;;16.20;61.80;101863.50;5089958;28;19912;-68
2022/05/17 01:03:52;;;;;;;;;;;;;;;16.18;63.71;101852.91;5092995;28;19916;-68
2022/05/17 01:06:18;;;;;;;;;;;;;;;16.17;62.97;101853.84;5094284;28;19920;-69
2022/05/17 01:08:44;;;;;;;;;;;;;;;16.15;63.48;101842.38;5094011;28;19919;-68
2022/05/17 01:11:09;;;;;;;;;;;;;;;16.13;62.67;101845.16;5092629;28;19912;-68
2022/05/17 01:16:19;;;;;;;;;;;;;;;16.09;63.25;101846.34;5092736;28;20288;-68
2022/05/17 01:18:45;;;;;;;;;;;;;;;16.07;63.84;101844.75;5096323;28;19920;-68
2022/05/17 01:21:10;;;;;;;;;;;;;;;16.08;62.66;101844.63;5093932;28;20348;-68
2022/05/17 01:23:36;;;;;;;;;;;;;;;16.11;62.19;101847.09;5092497;28;19933;-68
2022/05/17 01:26:03;;;;;;;;;;;;;;;16.13;62.74;101847.84;5092927;28;20014;-68
2022/05/17 01:28:34;;;;;;;;;;;;;;;16.12;62.70;101846.16;5092944;28;20402;-68
2022/05/17 01:31:04;;;;;;;;;;;;;;;16.12;62.77;101843.47;5094087;28;19919;-69
2022/05/17 01:33:30;;;;;;;;;;;;;;;16.16;61.89;101843.25;5092482;28;19912;-68
2022/05/17 01:35:58;;;;;;;;;;;;;;;16.22;61.37;101851.72;5093157;28;19922;-68
2022/05/17 01:38:23;;;;;;;;;;;;;;;16.27;62.19;101849.56;5090127;28;19928;-68
2022/05/17 01:40:49;;;;;;;;;;;;;;;16.31;61.44;101840.31;5092591;28;20413;-68
2022/05/17 01:43:14;;;;;;;;;;;;;;;16.34;62.04;101855.34;5092934;28;19946;-68
2022/05/17 01:45:40;;;;;;;;;;;;;;;16.33;62.45;101846.44;5093002;28;19912;-69
2022/05/17 01:48:06;;;;;;;;;;;;;;;16.31;62.85;101843.00;5093144;28;19916;-69
2022/05/17 01:50:32;;;;;;;;;;;;;;;16.29;62.99;101844.91;5091785;28;19912;-69
2022/05/17 01:52:58;;;;;;;;;;;;;;;16.32;62.74;101851.91;5091273;28;20392;-68
2022/05/17 01:55:23;;;;;;;;;;;;;;;16.34;63.13;101844.59;5088800;28;19916;-69
2022/05/17 01:57:48;;;;;;;;;;;;;;;16.34;63.01;101842.78;5090555;28;19931;-68
2022/05/17 02:00:15;;;;;;;;;;;;;;;16.35;62.14;101854.38;5091848;28;20425;-68
2022/05/17 02:02:40;;;;;;;;;;;;;;;16.37;62.98;101847.06;5091709;28;19915;-69
2022/05/17 02:05:09;;;;;;;;;;;;;;;16.37;62.01;101849.75;5092357;28;20276;-68
2022/05/17 02:07:37;;;;;;;;;;;;;;;16.38;62.13;101847.94;5078091;28;19923;-69
2022/05/17 02:10:04;;;;;;;;;;;;;;;16.38;61.96;101848.78;5091580;28;19923;-68
2022/05/17 02:12:29;;;;;;;;;;;;;;;16.38;63.08;101851.47;5090654;28;19923;-68
2022/05/17 02:14:54;;;;;;;;;;;;;;;16.37;62.45;101843.53;5094105;28;19912;-68
2022/05/17 02:17:20;;;;;;;;;;;;;;;16.38;61.89;101845.25;5091361;28;19920;-68
2022/05/17 02:19:45;;;;;;;;;;;;;;;16.37;63.43;101844.38;5090136;28;19919;-68
2022/05/17 02:22:11;;;;;;;;;;;;;;;16.35;62.23;101841.81;5091687;28;19963;-69
2022/05/17 02:24:36;;;;;;;;;;;;;;;16.37;62.91;101847.06;5090317;28;19918;-68
2022/05/17 02:27:02;;;;;;;;;;;;;;;16.40;62.29;101846.00;5090363;28;20363;-68
2022/05/17 02:29:29;;;;;;;;;;;;;;;16.39;62.62;101846.97;5095871;28;19912;-69
2022/05/17 02:31:57;;;;;;;;;;;;;;;16.38;62.28;101840.72;5091550;28;19938;-68
2022/05/17 02:34:22;;;;;;;;;;;;;;;16.40;62.94;101849.53;5091163;28;19912;-68
2022/05/17 02:36:48;;;;;;;;;;;;;;;16.39;62.45;101847.84;5090540;28;20359;-68
2022/05/17 02:39:13;;;;;;;;;;;;;;;16.41;62.68;101853.06;5091544;28;20298;-69
2022/05/17 02:41:38;;;;;;;;;;;;;;;16.42;62.74;101857.50;5093248;28;19919;-69
2022/05/17 02:44:04;;;;;;;;;;;;;;;16.43;62.19;101853.84;5090278;28;19989;-69
2022/05/17 02:46:31;;;;;;;;;;;;;;;16.44;62.72;101860.91;5089229;28;19912;-69
2022/05/17 02:48:57;;;;;;;;;;;;;;;16.41;62.90;101864.66;5090917;28;20428;-69
2022/05/17 02:51:23;;;;;;;;;;;;;;;16.41;62.53;101861.97;5092611;28;19922;-68
2022/05/17 02:53:48;;;;;;;;;;;;;;;16.40;62.65;101872.84;5092614;28;20389;-69
2022/05/17 02:56:14;;;;;;;;;;;;;;;16.39;62.60;101861.25;5091199;28;20393;-69
2022/05/17 02:58:39;;;;;;;;;;;;;;;16.38;62.55;101861.34;5093676;28;20321;-69
2022/05/17 03:01:05;;;;;;;;;;;;;;;16.36;62.86;101864.16;5089969;28;19916;-68
2022/05/17 03:03:31;;;;;;;;;;;;;;;16.35;62.77;101868.69;5100987;28;19918;-69
2022/05/17 03:05:56;;;;;;;;;;;;;;;16.33;62.49;101867.06;5111233;28;20036;-69
2022/05/17 03:08:22;;;;;;;;;;;;;;;16.29;62.48;101868.22;5103898;28;19919;-69
2022/05/17 03:10:47;;;;;;;;;;;;;;;16.25;62.47;101869.44;5093697;28;19922;-69
2022/05/17 03:13:14;;;;;;;;;;;;;;;16.21;62.25;101862.56;5095462;28;19912;-68
2022/05/17 03:15:39;;;;;;;;;;;;;;;16.18;62.15;101869.00;5092888;28;19919;-69
2022/05/17 03:18:05;;;;;;;;;;;;;;;16.16;63.08;101872.75;5094222;28;19920;-69
2022/05/17 03:20:30;;;;;;;;;;;;;;;16.11;62.57;101871.25;5095539;28;19942;-69
2022/05/17 03:22:56;;;;;;;;;;;;;;;16.08;62.63;101868.78;5094920;28;19919;-69
2022/05/17 03:25:23;;;;;;;;;;;;;;;16.07;62.65;101871.59;5096518;28;20025;-68
2022/05/17 03:27:49;;;;;;;;;;;;;;;16.05;62.69;101873.50;5096097;28;20332;-68
2022/05/17 03:30:14;;;;;;;;;;;;;;;16.03;62.74;101875.44;5094753;28;19920;-69
2022/05/17 03:32:40;;;;;;;;;;;;;;;15.98;62.87;101870.41;5115430;28;19922;-68
2022/05/17 03:35:08;;;;;;;;;;;;;;;15.96;63.27;101868.78;5111872;28;20289;-68
2022/05/17 03:37:33;;;;;;;;;;;;;;;15.92;63.19;101869.97;5098054;28;20018;-69
2022/05/17 03:39:59;;;;;;;;;;;;;;;15.90;62.93;101872.75;5094494;28;20343;-68
2022/05/17 03:42:24;;;;;;;;;;;;;;;15.86;62.97;101873.94;5095029;28;20014;-68
2022/05/17 03:44:51;;;;;;;;;;;;;;;15.85;63.90;101873.09;5093449;28;19955;-68
2022/05/17 03:47:16;;;;;;;;;;;;;;;15.83;63.62;101879.50;5095916;28;19912;-68
2022/05/17 03:49:42;;;;;;;;;;;;;;;15.80;63.67;101888.63;5093210;28;19935;-68
2022/05/17 03:52:08;;;;;;;;;;;;;;;15.78;64.27;101876.28;5095851;28;19912;-68
2022/05/17 03:54:34;;;;;;;;;;;;;;;15.74;63.85;101878.31;5094669;28;19976;-68
2022/05/17 03:57:00;;;;;;;;;;;;;;;15.72;64.21;101884.75;5096359;28;19905;-68
2022/05/17 03:59:26;;;;;;;;;;;;;;;15.71;63.90;101880.34;5094150;28;20447;-68
2022/05/17 04:01:54;;;;;;;;;;;;;;;15.72;63.82;101879.38;5096726;28;20011;-69
2022/05/17 04:04:19;;;;;;;;;;;;;;;15.70;63.73;101876.78;5093939;28;19920;-68
2022/05/17 04:06:46;;;;;;;;;;;;;;;15.67;64.05;101875.16;5095497;28;19920;-68
2022/05/17 04:09:11;;;;;;;;;;;;;;;15.66;63.78;101883.31;5092031;28;19959;-68
2022/05/17 04:11:37;;;;;;;;;;;;;;;15.66;65.43;101877.94;5095217;28;19947;-69
2022/05/17 04:14:03;;;;;;;;;;;;;;;15.62;64.18;101884.50;5092695;28;20351;-68
2022/05/17 04:16:33;;;;;;;;;;;;;;;15.61;65.58;101888.97;5097249;28;19912;-68
2022/05/17 04:18:59;;;;;;;;;;;;;;;15.61;65.63;101888.97;5093964;28;19923;-68
2022/05/17 04:21:25;;;;;;;;;;;;;;;15.63;65.33;101888.88;5076450;28;19920;-68
2022/05/17 04:23:53;;;;;;;;;;;;;;;15.64;65.94;101890.59;5094246;28;20006;-68
2022/05/17 04:26:18;;;;;;;;;;;;;;;15.67;65.68;101888.59;5093210;28;20578;-68
2022/05/17 04:28:44;;;;;;;;;;;;;;;15.69;65.68;101893.00;5092396;28;19958;-69
2022/05/17 04:31:10;;;;;;;;;;;;;;;15.74;65.59;101893.56;5091999;28;19951;-68
2022/05/17 04:33:38;;;;;;;;;;;;;;;15.78;65.41;101897.75;5096307;28;20383;-68
2022/05/17 04:36:04;;;;;;;;;;;;;;;15.82;66.74;101894.72;5092056;28;19916;-68
2022/05/17 04:38:29;;;;;;;;;;;;;;;15.84;65.81;101890.13;5092133;28;19919;-68
2022/05/17 04:40:55;;;;;;;;;;;;;;;15.89;65.84;101896.03;5094059;28;19938;-68
2022/05/17 04:43:20;;;;;;;;;;;;;;;15.93;66.96;101893.16;5093074;28;21809;-68
2022/05/17 04:45:46;;;;;;;;;;;;;;;15.94;65.92;101894.84;5091987;28;19955;-68
2022/05/17 04:48:11;;;;;;;;;;;;;;;15.97;66.29;101887.47;5095753;28;19916;-68
2022/05/17 04:50:39;;;;;;;;;;;;;;;16.01;65.12;101894.34;5093867;28;19911;-68
2022/05/17 04:53:04;;;;;;;;;;;;;;;16.05;65.32;101898.50;5093988;28;19912;-69
2022/05/17 04:55:31;;;;;;;;;;;;;;;16.09;65.33;101896.50;5093185;28;19916;-68
2022/05/17 04:57:57;;;;;;;;;;;;;;;16.13;64.99;101895.31;5092776;28;19916;-69
2022/05/17 05:00:23;;;;;;;;;;;;;;;16.17;66.12;101901.31;5092200;28;19920;-68
2022/05/17 05:02:49;;;;;;;;;;;;;;;16.23;66.16;101898.19;5091732;28;19931;-69
2022/05/17 05:05:16;;;;;;;;;;;;;;;16.28;66.02;101904.97;5088776;28;19927;-68
2022/05/17 05:07:42;;;;;;;;;;;;;;;16.35;65.93;101908.06;5093426;28;19918;-68
2022/05/17 05:10:07;;;;;;;;;;;;;;;16.41;66.15;101909.47;5091895;28;19912;-69
2022/05/17 05:12:34;;;;;;;;;;;;;;;16.45;65.70;101911.84;5092671;28;19918;-68
2022/05/17 05:15:00;;;;;;;;;;;;;;;16.50;65.73;101917.75;5091732;28;19919;-69
2022/05/17 05:17:28;;;;;;;;;;;;;;;16.55;65.79;101918.25;5094014;28;20431;-68
2022/05/17 05:19:54;;;;;;;;;;;;;;;16.61;65.76;101921.47;5092987;28;19911;-68
2022/05/17 05:22:19;;;;;;;;;;;;;;;16.63;66.21;101933.84;5091446;28;19942;-68
2022/05/17 05:24:45;;;;;;;;;;;;;;;16.64;65.83;101918.56;5089004;28;19919;-68
2022/05/17 05:27:11;;;;;;;;;;;;;;;16.66;64.92;101936.31;5092837;28;19919;-68
2022/05/17 05:29:36;;;;;;;;;;;;;;;16.67;65.25;101938.00;5091312;28;20371;-68
2022/05/17 05:32:01;;;;;;;;;;;;;;;16.71;65.20;101936.00;5091586;28;20410;-69
2022/05/17 05:34:27;;;;;;;;;;;;;;;16.71;63.66;101934.16;5091774;28;19923;-69
2022/05/17 05:36:53;;;;;;;;;;;;;;;16.71;64.72;101944.91;5091597;28;19916;-68
2022/05/17 05:39:19;;;;;;;;;;;;;;;16.72;65.27;101943.91;5092897;28;20694;-68
2022/05/17 05:41:44;;;;;;;;;;;;;;;16.75;65.25;101949.06;5093435;28;19915;-68
2022/05/17 05:44:10;;;;;;;;;;;;;;;16.79;65.26;101941.69;5122050;27;20390;-68
2022/05/17 05:46:35;;;;;;;;;;;;;;;16.80;65.26;101944.28;5091195;28;19915;-68
2022/05/17 05:49:01;;;;;;;;;;;;;;;16.84;65.79;101949.44;5090339;28;19919;-68
2022/05/17 05:51:27;;;;;;;;;;;;;;;16.84;65.33;101955.66;5092623;28;19912;-69
2022/05/17 05:53:52;;;;;;;;;;;;;;;16.84;64.93;101955.66;5089882;28;19916;-68
2022/05/17 05:56:18;;;;;;;;;;;;;;;16.85;65.62;101954.66;5090057;28;19912;-68
2022/05/17 05:58:45;;;;;;;;;;;;;;;16.85;65.46;101953.81;5093341;28;19916;-68
2022/05/17 06:01:11;;;;;;;;;;;;;;;16.86;65.32;101952.88;5090741;28;19916;-68
2022/05/17 06:03:36;;;;;;;;;;;;;;;16.85;66.34;101951.97;5091603;28;19912;-68
2022/05/17 06:06:02;;;;;;;;;;;;;;;16.82;65.67;101944.16;5091784;28;19916;-68
2022/05/17 06:08:28;;;;;;;;;;;;;;;16.83;65.82;101945.03;5093033;28;20270;-68
2022/05/17 06:10:56;;;;;;;;;;;;;;;16.84;65.39;101947.59;5091929;28;19911;-68
2022/05/17 06:13:22;;;;;;;;;;;;;;;16.87;65.82;101946.50;5089892;28;19919;-69
2022/05/17 06:15:48;;;;;;;;;;;;;;;16.88;66.10;101946.38;5093045;28;19916;-69
2022/05/17 06:18:13;;;;;;;;;;;;;;;16.90;66.24;101949.84;5092007;28;19923;-69
2022/05/17 06:20:38;;;;;;;;;;;;;;;16.92;65.57;101950.59;5091395;28;19923;-69
2022/05/17 06:23:04;;;;;;;;;;;;;;;16.94;65.29;101953.16;5091947;28;19919;-69
2022/05/17 06:25:30;;;;;;;;;;;;;;;16.92;65.35;101941.69;5091340;28;19922;-69
2022/05/17 06:27:56;;;;;;;;;;;;;;;16.90;65.05;101949.84;5094856;28;19918;-69
2022/05/17 06:30:22;;;;;;;;;;;;;;;16.91;64.76;101958.75;5091551;28;19939;-69
2022/05/17 06:32:47;;;;;;;;;;;;;;;16.89;65.36;101956.19;5091666;28;20007;-69
2022/05/17 06:35:13;;;;;;;;;;;;;;;16.88;65.15;101957.13;5091337;28;20396;-69
2022/05/17 06:37:39;;;;;;;;;;;;;;;16.89;65.47;101950.81;5091235;28;19916;-69
2022/05/17 06:40:05;;;;;;;;;;;;;;;16.88;65.39;101965.19;5091016;28;19919;-69
2022/05/17 06:42:30;;;;;;;;;;;;;;;16.92;64.57;101958.66;5091705;28;20271;-69
2022/05/17 06:44:56;;;;;;;;;;;;;;;16.95;65.12;101971.03;5094559;28;19918;-69
2022/05/17 06:47:22;;;;;;;;;;;;;;;16.98;64.57;101965.41;5090345;28;20378;-69
2022/05/17 06:49:50;;;;;;;;;;;;;;;17.03;65.10;101969.50;5091197;28;19959;-69
2022/05/17 06:52:16;;;;;;;;;;;;;;;17.08;65.12;101968.28;5091528;28;19920;-69
2022/05/17 06:54:41;;;;;;;;;;;;;;;17.12;65.09;101969.78;5091403;28;19912;-69
2022/05/17 06:57:11;;;;;;;;;;;;;;;17.16;65.34;101965.91;5090411;28;20003;-69
2022/05/17 06:59:39;;;;;;;;;;;;;;;17.18;65.48;101975.59;5091425;28;19945;-69
2022/05/17 07:02:05;;;;;;;;;;;;;;;17.19;65.48;101968.38;5089061;28;19915;-69
2022/05/17 07:04:33;;;;;;;;;;;;;;;17.20;65.39;101975.47;5092698;28;20006;-70
2022/05/17 07:06:59;;;;;;;;;;;;;;;17.22;65.47;101976.22;5090009;28;19912;-69
2022/05/17 07:09:25;;;;;;;;;;;;;;;17.25;64.97;101978.69;5094121;28;19930;-69
2022/05/17 07:14:41;;;;;;;;;;;;;;;17.28;65.75;101975.75;5091415;28;19918;-69
2022/05/17 07:17:10;;;;;;;;;;;;;;;17.30;65.90;101976.50;5091378;28;19912;-69
2022/05/17 07:19:36;;;;;;;;;;;;;;;17.34;66.30;101974.44;5090624;28;20351;-69
2022/05/17 07:22:03;;;;;;;;;;;;;;;17.32;67.14;101977.25;5094780;28;19912;-69
2022/05/17 07:24:29;;;;;;;;;;;;;;;17.34;68.46;101986.06;5095822;28;19918;-70
2022/05/17 07:26:54;;;;;;;;;;;;;;;17.30;69.95;101987.28;5090017;28;20002;-70
2022/05/17 07:29:22;;;;;;;;;;;;;;;17.28;68.77;101981.13;5090924;28;20451;-69
2022/05/17 07:31:48;;;;;;;;;;;;;;;17.30;68.71;101987.28;5089878;28;19912;-69
2022/05/17 07:34:13;;;;;;;;;;;;;;;17.32;69.33;101976.38;5072290;28;19923;-69
2022/05/17 07:36:39;;;;;;;;;;;;;;;17.35;70.11;101974.31;5089844;28;20006;-69
2022/05/17 07:39:04;;;;;;;;;;;;;;;17.35;69.35;101985.09;5089496;28;19924;-68
2022/05/17 07:41:30;;;;;;;;;;;;;;;17.38;69.41;101976.81;5090856;28;19911;-68
2022/05/17 07:43:56;;;;;;;;;;;;;;;17.42;68.73;101982.81;5089959;28;19916;-68
2022/05/17 07:46:22;;;;;;;;;;;;;;;17.43;69.89;101980.00;5093783;28;20435;-68
2022/05/17 07:48:47;;;;;;;;;;;;;;;17.45;68.81;101978.06;5090794;28;19920;-68
2022/05/17 07:51:12;;;;;;;;;;;;;;;17.47;68.01;101978.81;5090466;28;19919;-68
2022/05/17 07:53:40;;;;;;;;;;;;;;;17.50;68.93;101983.13;5089829;28;20001;-69
2022/05/17 07:56:06;;;;;;;;;;;;;;;17.54;68.88;101984.59;5091830;28;19912;-68
2022/05/17 07:58:32;;;;;;;;;;;;;;;17.59;68.63;101987.81;5094723;28;20018;-68
2022/05/17 08:00:57;;;;;;;;;;;;;;;17.62;69.28;101987.59;5094852;28;20374;-68
2022/05/17 08:03:23;;;;;;;;;;;;;;;17.62;69.06;101982.19;5093769;28;19993;-68
2022/05/17 08:05:50;;;;;;;;;;;;;;;17.66;69.23;101991.75;5093624;28;20428;-68
2022/05/17 08:08:16;;;;;;;;;;;;;;;17.67;70.40;101998.84;5095620;28;19912;-68
2022/05/17 08:10:41;;;;;;;;;;;;;;;17.67;69.32;102003.38;5095770;28;19930;-69
2022/05/17 08:13:07;;;;;;;;;;;;;;;17.68;68.91;101999.72;5093338;28;20278;-69
2022/05/17 08:15:33;;;;;;;;;;;;;;;17.75;68.79;102002.81;5092912;28;19912;-69
2022/05/17 08:17:58;;;;;;;;;;;;;;;17.79;71.84;101998.94;5094395;28;19924;-69
2022/05/17 08:20:23;;;;;;;;;;;;;;;17.76;70.67;101997.28;5094461;28;20374;-70
2022/05/17 08:22:49;;;;;;;;;;;;;;;17.78;71.52;101999.91;5097827;28;19916;-69
2022/05/17 08:27:59;;;;;;;;;;;;;;;17.80;70.69;102000.66;5114518;28;19965;-69
2022/05/17 08:30:26;;;;;;;;;;;;;;;17.83;70.33;101998.59;5112643;28;19943;-69
2022/05/17 08:33:17;;;;;;;;;;;;;;;17.87;70.66;101991.13;5103655;28;20014;-69
2022/05/17 08:35:45;;;;;;;;;;;;;;;17.90;70.08;102002.53;5091581;28;20401;-68
2022/05/17 08:38:12;;;;;;;;;;;;;;;17.95;70.09;102004.03;5095609;28;19919;-69
2022/05/17 08:40:50;;;;;;;;;;;;;;;18.01;70.54;102004.41;5093394;28;19916;-69
2022/05/17 08:43:25;;;;;;;;;;;;;;;18.06;71.89;102004.94;5093879;28;19919;-69
2022/05/17 08:46:14;;;;;;;;;;;;;;;18.09;70.69;102003.84;5093634;28;19977;-69
2022/05/17 08:48:46;;;;;;;;;;;;;;;18.12;71.05;102000.91;5092490;28;19927;-69
2022/05/17 08:51:13;;;;;;;;;;;;;;;18.12;70.17;102001.75;5092254;28;19912;-69
2022/05/17 08:53:39;;;;;;;;;;;;;;;18.14;70.33;101999.78;5093679;28;19922;-69
2022/05/17 08:56:05;;;;;;;;;;;;;;;18.16;72.15;101997.84;5092126;28;20321;-68
2022/05/17 08:58:31;;;;;;;;;;;;;;;18.14;71.58;101999.78;5094983;28;19918;-69
2022/05/17 09:00:59;;;;;;;;;;;;;;;18.12;70.89;101992.84;5093624;28;19923;-68
2022/05/17 09:03:43;;;;;;;;;;;;;;;18.12;70.04;101984.75;5092355;28;20141;-68
2022/05/17 09:06:19;;;;;;;;;;;;;;;18.19;70.19;101993.22;5092770;28;19912;-68
2022/05/17 09:08:45;;;;;;;;;;;;;;;18.23;70.38;101994.69;5096593;28;19912;-69
2022/05/17 09:11:19;;;;;;;;;;;;;;;18.29;69.47;101988.81;5093108;28;19912;-68
2022/05/17 09:13:47;;;;;;;;;;;;;;;18.38;70.66;101998.88;5092991;28;19942;-68
2022/05/17 09:16:14;;;;;;;;;;;;;;;18.41;69.58;101990.56;5093441;28;19955;-69
2022/05/17 09:18:40;;;;;;;;;;;;;;;18.40;68.41;101983.47;5093321;28;19912;-69
2022/05/17 09:21:20;;;;;;;;;;;;;;;18.40;68.11;101980.75;5092699;28;20022;-69
2022/05/17 09:23:45;;;;;;;;;;;;;;;18.47;68.94;101973.94;5092763;28;19915;-69
2022/05/17 09:26:11;;;;;;;;;;;;;;;18.52;69.09;101963.63;5092916;28;20390;-69
2022/05/17 09:28:53;;;;;;;;;;;;;;;18.59;69.02;101969.41;5092676;28;19912;-69
2022/05/17 09:31:21;;;;;;;;;;;;;;;18.69;69.04;101965.00;5095429;28;19911;-69
2022/05/17 09:33:47;;;;;;;;;;;;;;;18.79;68.51;101963.31;5092193;28;19964;-69
2022/05/17 09:36:18;;;;;;;;;;;;;;;18.90;68.15;101967.00;5092627;28;20002;-69
2022/05/17 09:38:43;;;;;;;;;;;;;;;19.00;67.98;101965.25;5099440;28;19922;-68
2022/05/17 09:41:11;;;;;;;;;;;;;;;19.13;67.43;101970.53;5092066;28;19916;-69
2022/05/17 09:43:39;;;;;;;;;;;;;;;19.19;66.05;101965.47;5094060;28;19912;-69
2022/05/17 09:46:12;;;;;;;;;;;;;;;19.23;66.26;101961.53;5092490;28;19912;-69
2022/05/17 09:54:27;;;;;;;;;;;;;;;20.12;64.99;101956.81;5090997;28;19958;-69
2022/05/17 09:56:56;;;;;;;;;;;;;;;20.46;62.71;101956.59;5091617;28;20315;-69
2022/05/17 09:59:22;;;;;;;;;;;;;;;20.64;61.88;101949.59;5091867;28;19942;-69
2022/05/17 10:01:48;;;;;;;;;;;;;;;20.85;61.34;101954.09;5090481;28;19912;-69
2022/05/17 10:04:17;;;;;;;;;;;;;;;21.04;61.63;101943.34;5091772;28;19981;-69
2022/05/17 10:06:45;;;;;;;;;;;;;;;21.27;60.32;101937.69;5091228;28;20455;-69
2022/05/17 10:09:13;;;;;;;;;;;;;;;21.41;59.01;101936.44;5090611;28;19912;-70
2022/05/17 10:11:46;;;;;;;;;;;;;;;21.53;58.48;101938.91;5093191;28;20370;-69
2022/05/17 10:14:33;;;;;;;;;;;;;;;21.42;58.32;101939.03;5089943;28;19919;-69
2022/05/17 10:17:22;;;;;;;;;;;;;;;21.46;57.15;101932.31;5091655;28;19947;-69
2022/05/17 10:19:53;;;;;;;;;;;;;;;21.47;57.17;101933.19;5090181;28;19961;-69
2022/05/17 10:22:37;;;;;;;;;;;;;;;21.39;56.70;101935.75;5091148;28;19919;-70
2022/05/17 10:25:20;;;;;;;;;;;;;;;21.32;56.27;101930.88;5085986;28;19922;-70
2022/05/17 10:27:51;;;;;;;;;;;;;;;21.32;55.41;101927.28;5090638;28;19912;-70
2022/05/17 10:30:19;;;;;;;;;;;;;;;21.37;55.91;101932.31;5090454;28;19912;-70
2022/05/17 10:32:44;;;;;;;;;;;;;;;21.47;55.32;101925.06;5091185;28;19922;-70
2022/05/17 10:35:15;;;;;;;;;;;;;;;21.58;55.03;101929.50;5091595;28;20370;-69
2022/05/17 10:37:51;;;;;;;;;;;;;;;21.72;56.20;101920.94;5090516;28;19962;-70
2022/05/17 10:40:43;;;;;;;;;;;;;;;21.82;55.02;101918.22;5091155;28;19923;-70
2022/05/17 10:43:15;;;;;;;;;;;;;;;22.07;53.76;101933.88;5096071;28;19920;-70
2022/05/17 10:45:41;;;;;;;;;;;;;;;22.19;53.49;101918.34;5093790;28;19958;-70
2022/05/17 10:48:06;;;;;;;;;;;;;;;22.35;53.60;101915.00;5091002;28;19912;-70
2022/05/17 10:50:37;;;;;;;;;;;;;;;22.51;52.22;101925.22;5091060;28;19912;-70
2022/05/17 10:53:30;;;;;;;;;;;;;;;22.66;51.42;101923.75;5063825;28;20554;-70
2022/05/17 10:56:00;;;;;;;;;;;;;;;22.81;52.64;101919.50;5066045;28;19920;-70
2022/05/17 10:58:44;;;;;;;;;;;;;;;23.00;52.51;101910.47;5067893;28;19916;-70
2022/05/17 11:01:16;;;;;;;;;;;;;;;23.14;50.27;101911.78;5049741;28;19962;-70
2022/05/17 11:04:08;;;;;;;;;;;;;;;23.26;51.32;101912.41;5052258;28;20518;-70
2022/05/17 11:06:36;;;;;;;;;;;;;;;23.52;48.78;101905.22;5040762;28;20003;-70
2022/05/17 11:09:14;;;;;;;;;;;;;;;23.52;48.91;101912.50;5064328;28;19923;-70
2022/05/17 11:11:57;;;;;;;;;;;;;;;23.55;49.22;101904.91;5064115;28;19919;-70
2022/05/17 11:14:30;;;;;;;;;;;;;;;23.73;49.58;101907.63;5049320;28;19920;-70
2022/05/17 11:16:57;;;;;;;;;;;;;;;23.94;49.40;101895.56;5051717;28;19912;-70
2022/05/17 11:19:28;;;;;;;;;;;;;;;24.08;48.28;101896.84;5066262;28;19920;-70
2022/05/17 11:22:13;;;;;;;;;;;;;;;24.22;48.08;101882.69;5065426;28;20433;-69
2022/05/17 11:24:57;;;;;;;;;;;;;;;24.41;46.69;101882.44;5066420;28;19919;-69
2022/05/17 11:27:34;;;;;;;;;;;;;;;24.58;47.87;101875.22;5091372;28;20345;-69
2022/05/17 11:30:08;;;;;;;;;;;;;;;24.77;47.43;101871.41;5087791;28;19955;-70
2022/05/17 11:32:34;;;;;;;;;;;;;;;24.95;46.94;101867.72;5095051;28;20007;-70
2022/05/17 11:35:04;;;;;;;;;;;;;;;25.13;45.60;101866.59;5093282;28;19919;-69
2022/05/17 11:37:32;;;;;;;;;;;;;;;25.24;46.29;101862.69;5098068;28;19920;-69
2022/05/17 11:39:59;;;;;;;;;;;;;;;25.55;46.16;101860.16;5093445;28;19920;-68
2022/05/17 11:42:24;;;;;;;;;;;;;;;25.86;42.56;101855.91;5092923;28;19955;-69
2022/05/17 11:44:51;;;;;;;;;;;;;;;26.10;44.81;101852.28;5092492;28;19959;-69
2022/05/17 11:47:43;;;;;;;;;;;;;;;26.46;42.56;101849.94;5093456;28;19916;-69
2022/05/17 11:50:21;;;;;;;;;;;;;;;26.70;43.38;101838.91;5090271;28;19972;-70
2022/05/17 11:52:54;;;;;;;;;;;;;;;27.03;44.40;101836.03;5093256;28;19911;-69
2022/05/17 11:55:23;;;;;;;;;;;;;;;27.59;42.30;101842.09;5094961;28;19946;-70
2022/05/17 11:57:48;;;;;;;;;;;;;;;28.06;38.66;101837.34;5089120;28;19984;-69
2022/05/17 12:00:27;;;;;;;;;;;;;;;28.04;37.02;101828.50;5093085;28;19958;-69
2022/05/17 12:03:00;;;;;;;;;;;;;;;28.35;38.01;101831.03;5090970;28;19951;-70
2022/05/17 12:05:37;;;;;;;;;;;;;;;29.03;36.91;101818.00;5092985;28;19916;-70
2022/05/17 12:08:21;;;;;;;;;;;;;;;29.73;34.53;101819.06;5095322;28;19919;-69
2022/05/17 12:10:47;;;;;;;;;;;;;;;29.34;34.50;101814.91;5093816;28;19947;-70
2022/05/17 12:13:13;;;;;;;;;;;;;;;29.53;37.01;101809.81;5094060;28;19912;-70
2022/05/17 12:15:47;;;;;;;;;;;;;;;30.23;34.01;101808.84;5092390;28;20107;-70
2022/05/17 12:18:21;;;;;;;;;;;;;;;30.70;32.70;101803.53;5093986;28;20363;-70
2022/05/17 12:21:05;;;;;;;;;;;;;;;31.25;33.13;101804.31;5090169;28;19927;-69
2022/05/17 12:23:53;;;;;;;;;;;;;;;31.80;33.17;101795.84;5090054;28;20355;-71
2022/05/17 12:26:26;;;;;;;;;;;;;;;32.20;32.14;101788.34;5097221;28;19963;-70
2022/05/17 12:28:53;;;;;;;;;;;;;;;32.58;31.83;101782.06;5090437;28;19966;-70
2022/05/17 12:31:26;;;;;;;;;;;;;;;32.55;30.89;101779.75;5092127;28;20372;-70
2022/05/17 12:33:52;;;;;;;;;;;;;;;32.98;29.50;101777.16;5092267;28;19919;-70
2022/05/17 12:36:28;;;;;;;;;;;;;;;33.34;29.34;101783.03;5092011;28;19924;-70
2022/05/17 12:44:28;;;;;;;;;;;;;;;35.05;28.05;101772.94;5093027;28;19965;-70
2022/05/17 12:46:55;;;;;;;;;;;;;;;34.45;28.33;101771.03;5092958;28;19911;-70
2022/05/17 12:49:26;;;;;;;;;;;;;;;32.98;27.57;101771.66;5092568;28;20362;-70
2022/05/17 12:52:08;;;;;;;;;;;;;;;31.87;30.86;101769.16;5094661;28;19912;-70
2022/05/17 12:54:34;;;;;;;;;;;;;;;30.98;31.67;101763.06;5090169;28;20389;-71
2022/05/17 12:56:59;;;;;;;;;;;;;;;30.00;32.44;101758.88;5090065;28;19958;-70
2022/05/17 12:59:27;;;;;;;;;;;;;;;29.26;33.47;101760.25;5090876;28;19930;-70
2022/05/17 13:01:53;;;;;;;;;;;;;;;29.25;34.22;101754.97;5092188;28;19912;-70